EDDB/SXF METAR and TAF weather

Enter ICAO airport designator
Station Type Date Time Source
EDDB METAR 2018/01/17 06:20 UTC NOAA

EDDB 170620Z 22008KT 9999 BKN035 01/M01 Q0990 TEMPO 4000 -SN BKN013


Station Type Date Time Source
EDDB Decoded METAR 2018/01/17 06:20 UTC NOAA

Berlin-Schoenefeld, Germany (EDDB) 52-23N 013-31E 50M
Jan 17, 2018 - 01:20 AM EST / 2018.01.17 0620 UTC
Wind: from the SW (220 degrees) at 9 MPH (8 KT):0
Visibility: greater than 7 mile(s):0
Sky conditions: mostly cloudy
Temperature: 33 F (1 C)
Windchill: 24 F (-4 C):1
Dew Point: 30 F (-1 C)
Relative Humidity: 86%
Pressure (altimeter): 29.23 in. Hg (0990 hPa)
ob: EDDB 170620Z 22008KT 9999 BKN035 01/M01 Q0990 TEMPO 4000 -SN BKN013
cycle: 6

Station Type Date Time Source
EDDB TAF 2018/01/17 06:27 UTC NOAA

TAF TAF EDDB 170500Z 1706/1806 22007KT 9999 BKN020 PROB30
TEMPO 1708/1715 25015G25KT 2500 SHSNGS BKN008CB
TEMPO 1800/1806 BKN011


Example: see airport list